createdAt,value
2023-03-02T00:02:25.996Z,14.13
2023-03-02T00:04:56.025Z,14.14
2023-03-02T00:07:28.323Z,14.13
2023-03-02T00:09:56.406Z,14.13
2023-03-02T00:12:24.250Z,14.13
2023-03-02T00:14:51.919Z,14.13
2023-03-02T00:17:27.696Z,14.13
2023-03-02T00:19:55.351Z,14.13
2023-03-02T00:22:23.306Z,14.13
2023-03-02T00:24:51.297Z,14.11
2023-03-02T00:27:18.916Z,14.13
2023-03-02T00:29:46.652Z,14.11
2023-03-02T00:32:18.122Z,14.12
2023-03-02T00:34:47.134Z,14.12
2023-03-02T00:37:14.742Z,14.11
2023-03-02T00:39:42.511Z,14.11
2023-03-02T00:42:10.117Z,14.11
2023-03-02T00:44:37.739Z,14.10
2023-03-02T00:47:05.468Z,14.10
2023-03-02T00:49:33.087Z,14.11
2023-03-02T00:52:02.049Z,14.11
2023-03-02T00:54:29.714Z,14.09
2023-03-02T00:56:57.339Z,14.09
2023-03-02T00:59:30.480Z,14.09
2023-03-02T01:01:59.782Z,14.09
2023-03-02T01:04:29.802Z,14.09
2023-03-02T01:06:57.741Z,14.10
2023-03-02T01:09:27.291Z,14.10
2023-03-02T01:11:55.503Z,14.10
2023-03-02T01:14:23.591Z,14.09
2023-03-02T01:16:51.434Z,14.10
2023-03-02T01:19:19.482Z,14.09
2023-03-02T01:21:47.153Z,14.11
2023-03-02T01:24:14.815Z,14.10
2023-03-02T01:26:43.823Z,14.10
2023-03-02T01:29:11.693Z,14.10
2023-03-02T01:31:39.724Z,14.10
2023-03-02T01:34:08.127Z,14.10
2023-03-02T01:36:35.844Z,14.10
2023-03-02T01:39:04.171Z,14.10
2023-03-02T01:41:32.422Z,14.10
2023-03-02T01:44:01.398Z,14.10
2023-03-02T01:46:32.402Z,14.10
2023-03-02T01:49:03.569Z,14.09
2023-03-02T01:51:35.089Z,14.10
2023-03-02T01:54:05.557Z,14.09
2023-03-02T01:56:38.299Z,14.10
2023-03-02T01:59:13.734Z,14.09
2023-03-02T02:01:45.294Z,14.09
2023-03-02T02:04:13.970Z,14.08
2023-03-02T02:06:47.938Z,14.09
2023-03-02T02:09:18.635Z,14.08
2023-03-02T02:11:47.507Z,14.09
2023-03-02T02:14:16.687Z,14.09
2023-03-02T02:16:44.344Z,14.08
2023-03-02T02:19:21.098Z,14.08
2023-03-02T02:21:48.701Z,14.09
2023-03-02T02:24:22.713Z,14.07
2023-03-02T02:26:54.078Z,14.08
2023-03-02T02:29:26.585Z,14.08
2023-03-02T02:31:58.980Z,14.08
2023-03-02T02:34:32.669Z,14.09
2023-03-02T02:37:09.597Z,14.09
2023-03-02T02:39:42.285Z,14.07
2023-03-02T02:42:16.348Z,14.06
2023-03-02T02:44:44.070Z,14.07
2023-03-02T02:47:18.287Z,14.07
2023-03-02T02:49:48.347Z,14.07
2023-03-02T02:52:19.642Z,14.07
2023-03-02T02:54:50.348Z,14.07
2023-03-02T02:57:20.884Z,14.08
2023-03-02T02:59:51.913Z,14.08
2023-03-02T03:02:22.727Z,14.08
2023-03-02T03:04:50.351Z,14.08
2023-03-02T03:07:21.973Z,14.09
2023-03-02T03:09:54.295Z,14.09
2023-03-02T03:12:25.529Z,14.09
2023-03-02T03:14:54.219Z,14.09
2023-03-02T03:17:22.060Z,14.08
2023-03-02T03:19:49.697Z,14.08
2023-03-02T03:22:18.391Z,14.09
2023-03-02T03:24:46.910Z,14.09
2023-03-02T03:27:17.266Z,14.06
2023-03-02T03:29:48.792Z,14.07
2023-03-02T03:32:16.811Z,14.08
2023-03-02T03:34:44.968Z,14.07
2023-03-02T03:37:15.787Z,14.07
2023-03-02T03:39:44.309Z,14.07
2023-03-02T03:42:12.058Z,14.07
2023-03-02T03:44:39.715Z,14.08
2023-03-02T03:47:08.687Z,14.08
2023-03-02T03:49:36.369Z,14.07
2023-03-02T03:52:04.542Z,14.07
2023-03-02T03:54:32.176Z,14.07
2023-03-02T03:56:59.950Z,14.07
2023-03-02T03:59:28.431Z,14.08
2023-03-02T04:01:58.214Z,14.07
2023-03-02T04:04:29.080Z,14.06
2023-03-02T04:06:57.411Z,14.06
2023-03-02T04:09:25.887Z,14.06
2023-03-02T04:11:55.296Z,14.07
2023-03-02T04:14:24.492Z,14.05
2023-03-02T04:16:53.176Z,14.06
2023-03-02T04:19:21.391Z,14.05
2023-03-02T04:21:53.355Z,14.05
2023-03-02T04:24:23.439Z,14.06
2023-03-02T04:26:51.557Z,14.04
2023-03-02T04:29:19.618Z,14.05
2023-03-02T04:31:48.450Z,14.06
2023-03-02T04:34:16.164Z,14.06
2023-03-02T04:36:44.629Z,14.06
2023-03-02T04:39:14.790Z,14.05
2023-03-02T04:41:42.475Z,14.06
2023-03-02T04:44:10.097Z,14.06
2023-03-02T04:46:37.936Z,14.06
2023-03-02T04:49:06.555Z,14.07
2023-03-02T04:51:36.888Z,14.06
2023-03-02T04:54:08.226Z,14.07
2023-03-02T04:56:37.267Z,14.07
2023-03-02T04:59:04.908Z,14.06
2023-03-02T05:01:32.866Z,14.07
2023-03-02T05:04:02.804Z,14.05
2023-03-02T05:06:30.896Z,14.07
2023-03-02T05:08:59.863Z,14.07
2023-03-02T05:11:27.727Z,14.09
2023-03-02T05:13:58.720Z,14.10
2023-03-02T05:16:29.271Z,14.09
2023-03-02T05:18:57.288Z,14.10
2023-03-02T05:21:25.579Z,14.11
2023-03-02T05:23:53.999Z,14.10
2023-03-02T05:26:21.610Z,14.10
2023-03-02T05:28:49.349Z,14.10
2023-03-02T05:31:22.022Z,14.10
2023-03-02T05:33:49.774Z,14.12
2023-03-02T05:36:31.468Z,14.11
2023-03-02T05:38:59.336Z,14.11
2023-03-02T05:41:27.045Z,14.09
2023-03-02T05:43:55.004Z,14.10
2023-03-02T05:46:24.211Z,14.12
2023-03-02T05:48:51.836Z,14.10
2023-03-02T05:51:19.511Z,14.10
2023-03-02T05:53:47.162Z,14.09
2023-03-02T05:56:14.777Z,14.10
2023-03-02T05:58:42.365Z,14.09
2023-03-02T06:01:15.194Z,14.09
2023-03-02T06:03:44.754Z,14.09
2023-03-02T06:06:14.034Z,14.09
2023-03-02T06:08:42.339Z,14.09
2023-03-02T06:11:10.412Z,14.10
2023-03-02T06:13:38.074Z,14.08
2023-03-02T06:16:06.662Z,14.10
2023-03-02T06:18:34.634Z,14.09
2023-03-02T06:21:04.124Z,14.11
2023-03-02T06:23:31.974Z,14.10
2023-03-02T06:25:59.607Z,14.10
2023-03-02T06:28:27.706Z,14.11
2023-03-02T06:30:55.380Z,14.11
2023-03-02T06:33:23.075Z,14.12
2023-03-02T06:35:51.010Z,14.12
2023-03-02T06:38:20.077Z,14.13
2023-03-02T06:40:47.738Z,14.12
2023-03-02T06:43:15.754Z,14.12
2023-03-02T06:45:43.422Z,14.12
2023-03-02T06:48:11.063Z,14.14
2023-03-02T06:50:38.768Z,14.12
2023-03-02T06:53:06.424Z,14.13
2023-03-02T06:55:35.458Z,14.13
2023-03-02T06:58:03.068Z,14.13
2023-03-02T07:00:30.796Z,14.12
2023-03-02T07:02:58.452Z,14.14
2023-03-02T07:05:26.070Z,14.14
2023-03-02T07:07:53.718Z,14.13
2023-03-02T07:10:21.363Z,14.14
2023-03-02T07:12:50.351Z,14.13
2023-03-02T07:15:18.036Z,14.14
2023-03-02T07:17:46.318Z,14.13
2023-03-02T07:20:16.639Z,14.13
2023-03-02T07:22:44.837Z,14.13
2023-03-02T07:25:13.164Z,14.13
2023-03-02T07:27:41.404Z,14.11
2023-03-02T07:30:12.041Z,14.13
2023-03-02T07:32:39.737Z,14.12
2023-03-02T07:35:08.120Z,14.12
2023-03-02T07:37:35.704Z,14.12
2023-03-02T07:40:03.813Z,14.11
2023-03-02T07:42:31.473Z,14.11
2023-03-02T07:44:59.321Z,14.12
2023-03-02T07:47:28.343Z,14.10
2023-03-02T07:49:55.949Z,14.11
2023-03-02T07:52:23.642Z,14.11
2023-03-02T07:54:51.580Z,14.12
2023-03-02T07:57:19.543Z,14.12
2023-03-02T07:59:47.185Z,14.12
2023-03-02T08:02:17.172Z,14.12
2023-03-02T08:04:46.105Z,14.14
2023-03-02T08:07:13.746Z,14.12
2023-03-02T08:09:41.518Z,14.13
2023-03-02T08:12:09.177Z,14.13
2023-03-02T08:14:37.082Z,14.13
2023-03-02T08:17:06.093Z,14.15
2023-03-02T08:19:33.785Z,14.13
2023-03-02T08:22:03.398Z,14.13
2023-03-02T08:24:31.104Z,14.14
2023-03-02T08:27:01.089Z,14.13
2023-03-02T08:29:29.307Z,14.14
2023-03-02T08:31:58.842Z,14.14
2023-03-02T08:34:26.881Z,14.14
2023-03-02T08:36:54.650Z,14.14
2023-03-02T08:39:23.742Z,14.13
2023-03-02T08:41:51.656Z,14.14
2023-03-02T08:44:20.924Z,14.14
2023-03-02T08:46:48.948Z,14.14
2023-03-02T08:49:16.795Z,14.15
2023-03-02T08:51:46.088Z,14.14
2023-03-02T08:54:13.984Z,14.14
2023-03-02T08:56:44.390Z,14.14
2023-03-02T08:59:14.810Z,14.14
2023-03-02T09:01:43.510Z,14.14
2023-03-02T09:04:12.169Z,14.15
2023-03-02T09:06:42.550Z,14.14
2023-03-02T09:09:11.817Z,14.14
2023-03-02T09:11:40.256Z,14.15
2023-03-02T09:14:09.677Z,14.14
2023-03-02T09:16:38.117Z,14.14
2023-03-02T09:19:05.858Z,14.14
2023-03-02T09:21:33.925Z,14.14
2023-03-02T09:24:01.775Z,14.14
2023-03-02T09:26:29.585Z,14.14
2023-03-02T09:28:57.409Z,14.14
2023-03-02T09:31:28.518Z,14.13
2023-03-02T09:33:58.064Z,14.16
2023-03-02T09:36:27.169Z,14.15
2023-03-02T09:38:55.331Z,14.14
2023-03-02T09:41:56.562Z,14.15
2023-03-02T09:44:58.025Z,14.16
2023-03-02T09:47:35.844Z,14.14
2023-03-02T09:50:17.588Z,14.16
2023-03-02T09:52:55.220Z,14.17
2023-03-02T09:55:28.430Z,14.16
2023-03-02T09:57:56.674Z,14.16
2023-03-02T10:00:29.478Z,14.17
2023-03-02T10:03:14.917Z,14.17
2023-03-02T10:05:46.569Z,14.17
2023-03-02T10:08:16.869Z,14.17
2023-03-02T10:10:47.605Z,14.16
2023-03-02T10:13:24.259Z,14.16
2023-03-02T10:16:13.304Z,14.16
2023-03-02T10:18:47.613Z,14.16
2023-03-02T10:21:23.244Z,14.16
2023-03-02T10:23:57.639Z,14.16
2023-03-02T10:26:39.328Z,14.17
2023-03-02T10:29:23.867Z,14.15
2023-03-02T10:32:00.069Z,14.16
2023-03-02T10:34:31.229Z,14.16
2023-03-02T10:36:59.694Z,14.16
2023-03-02T10:39:27.310Z,14.17
2023-03-02T10:42:00.472Z,14.18
2023-03-02T10:44:32.423Z,14.17
2023-03-02T10:47:00.129Z,14.17
2023-03-02T10:49:31.064Z,14.18
2023-03-02T10:52:01.229Z,14.17
2023-03-02T10:54:30.281Z,14.17
2023-03-02T10:57:01.445Z,14.16
2023-03-02T10:59:47.091Z,14.16
2023-03-02T11:02:19.123Z,14.17
2023-03-02T11:04:48.220Z,14.15
2023-03-02T11:07:18.581Z,14.16
2023-03-02T11:10:01.847Z,14.17
2023-03-02T11:12:30.634Z,14.17
2023-03-02T11:15:26.868Z,14.17
2023-03-02T11:18:01.611Z,14.16
2023-03-02T11:20:34.973Z,14.17
2023-03-02T11:23:20.639Z,14.17
2023-03-02T11:25:54.135Z,14.16
2023-03-02T11:28:40.803Z,14.17
2023-03-02T11:31:17.712Z,14.18
2023-03-02T11:34:04.732Z,14.19
2023-03-02T11:36:49.952Z,14.18
2023-03-02T11:39:24.365Z,14.17
2023-03-02T11:41:53.753Z,14.17
2023-03-02T11:44:24.679Z,14.17
2023-03-02T11:46:59.002Z,14.19
2023-03-02T11:49:37.569Z,14.17
2023-03-02T11:52:16.729Z,14.17
2023-03-02T11:54:47.185Z,14.18
2023-03-02T11:57:22.305Z,14.16
2023-03-02T11:59:51.654Z,14.17
2023-03-02T12:02:20.136Z,14.17
2023-03-02T12:04:48.132Z,14.17
2023-03-02T12:07:23.843Z,14.17
2023-03-02T12:10:02.763Z,14.19
2023-03-02T12:12:47.977Z,14.17
2023-03-02T12:15:36.032Z,14.17
2023-03-02T12:18:04.199Z,14.19
2023-03-02T12:20:31.793Z,14.18
2023-03-02T12:23:23.938Z,14.18
2023-03-02T12:26:03.555Z,14.18
2023-03-02T12:28:34.621Z,14.19
2023-03-02T12:31:10.146Z,14.19
2023-03-02T12:33:47.384Z,14.18
2023-03-02T12:36:19.834Z,14.19
2023-03-02T12:39:05.794Z,14.19
2023-03-02T12:41:42.548Z,14.20
2023-03-02T12:44:27.809Z,14.20
2023-03-02T12:46:56.330Z,14.19
2023-03-02T12:49:49.438Z,14.20
2023-03-02T12:52:24.306Z,14.20
2023-03-02T12:55:02.612Z,14.18
2023-03-02T12:57:30.446Z,14.18
2023-03-02T12:59:59.774Z,14.19
2023-03-02T13:02:30.110Z,14.19
2023-03-02T13:04:59.839Z,14.20
2023-03-02T13:07:31.017Z,14.20
2023-03-02T13:10:01.612Z,14.20
2023-03-02T13:12:30.034Z,14.20
2023-03-02T13:14:59.534Z,14.21
2023-03-02T13:17:30.852Z,14.22
2023-03-02T13:20:00.394Z,14.21
2023-03-02T13:22:29.170Z,14.22
2023-03-02T13:25:00.314Z,14.23
2023-03-02T13:27:29.684Z,14.22
2023-03-02T13:29:57.865Z,14.23
2023-03-02T13:32:28.208Z,14.22
2023-03-02T13:34:58.718Z,14.23
2023-03-02T13:37:37.618Z,14.23
2023-03-02T13:40:08.213Z,14.24
2023-03-02T13:42:40.213Z,14.23
2023-03-02T13:45:26.699Z,14.23
2023-03-02T13:47:54.661Z,14.23
2023-03-02T13:50:24.796Z,14.23
2023-03-02T13:52:53.352Z,14.22
2023-03-02T13:55:22.329Z,14.23
2023-03-02T13:57:53.412Z,14.24
2023-03-02T14:00:23.651Z,14.23
2023-03-02T14:02:51.436Z,14.23
2023-03-02T14:05:21.486Z,14.23
2023-03-02T14:07:49.649Z,14.25
2023-03-02T14:10:19.590Z,14.24
2023-03-02T14:12:55.902Z,14.24
2023-03-02T14:15:24.070Z,14.24
2023-03-02T14:17:51.793Z,14.24
2023-03-02T14:20:20.936Z,14.24
2023-03-02T14:22:48.820Z,14.25
2023-03-02T14:25:16.491Z,14.25
2023-03-02T14:27:47.173Z,14.24
2023-03-02T14:30:20.791Z,14.24
2023-03-02T14:32:49.033Z,14.24
2023-03-02T14:35:17.470Z,14.24
2023-03-02T14:37:49.259Z,14.25
2023-03-02T14:40:19.460Z,14.24
2023-03-02T14:42:47.060Z,14.24
2023-03-02T14:45:16.490Z,14.23
2023-03-02T14:47:44.121Z,14.24
2023-03-02T14:50:13.136Z,14.25
2023-03-02T14:52:43.588Z,14.23
2023-03-02T14:55:18.289Z,14.25
2023-03-02T14:57:46.177Z,14.25
2023-03-02T15:00:17.700Z,14.25
2023-03-02T15:02:45.382Z,14.25
2023-03-02T15:05:13.103Z,14.26
2023-03-02T15:07:41.004Z,14.26
2023-03-02T15:10:13.360Z,14.25
2023-03-02T15:12:40.956Z,14.25
2023-03-02T15:15:09.744Z,14.26
2023-03-02T15:17:38.762Z,14.25
2023-03-02T15:20:07.811Z,14.25
2023-03-02T15:22:35.421Z,14.26
2023-03-02T15:25:03.099Z,14.25
2023-03-02T15:27:30.698Z,14.25
2023-03-02T15:29:58.345Z,14.24
2023-03-02T15:32:26.634Z,14.24
2023-03-02T15:34:55.804Z,14.25
2023-03-02T15:37:23.422Z,14.25
2023-03-02T15:39:54.836Z,14.24
2023-03-02T15:42:22.764Z,14.23
2023-03-02T15:44:50.426Z,14.24
2023-03-02T15:47:18.775Z,14.24
2023-03-02T15:49:46.376Z,14.25
2023-03-02T15:52:15.753Z,14.24
2023-03-02T15:54:43.448Z,14.25
2023-03-02T15:57:11.578Z,14.25
2023-03-02T15:59:39.202Z,14.25
2023-03-02T16:02:06.859Z,14.26
2023-03-02T16:04:34.940Z,14.25
2023-03-02T16:07:02.704Z,14.26
2023-03-02T16:09:31.975Z,14.26
2023-03-02T16:11:59.912Z,14.26
2023-03-02T16:14:27.537Z,14.26
2023-03-02T16:16:55.215Z,14.26
2023-03-02T16:19:22.911Z,14.26
2023-03-02T16:21:50.511Z,14.26
2023-03-02T16:24:18.261Z,14.27
2023-03-02T16:26:47.424Z,14.26
2023-03-02T16:29:15.265Z,14.26
2023-03-02T16:31:46.222Z,14.26
2023-03-02T16:34:14.642Z,14.26
2023-03-02T16:36:42.886Z,14.26
2023-03-02T16:39:11.996Z,14.26
2023-03-02T16:41:41.866Z,14.25
2023-03-02T16:44:13.373Z,14.26
2023-03-02T16:46:43.381Z,14.26
2023-03-02T16:49:12.245Z,14.25
2023-03-02T16:51:40.586Z,14.24
2023-03-02T16:54:08.434Z,14.26
2023-03-02T16:56:36.093Z,14.25
2023-03-02T16:59:03.720Z,14.25
2023-03-02T17:01:32.795Z,14.26
2023-03-02T17:04:00.533Z,14.25
2023-03-02T17:06:28.172Z,14.25
2023-03-02T17:08:55.842Z,14.26
2023-03-02T17:11:23.466Z,14.24
2023-03-02T17:13:51.089Z,14.24
2023-03-02T17:16:19.244Z,14.25
2023-03-02T17:18:48.259Z,14.25
2023-03-02T17:21:17.933Z,14.24
2023-03-02T17:23:47.964Z,14.24
2023-03-02T17:26:15.692Z,14.24
2023-03-02T17:28:43.340Z,14.24
2023-03-02T17:31:11.052Z,14.24
2023-03-02T17:33:39.076Z,14.24
2023-03-02T17:36:12.086Z,14.24
2023-03-02T17:38:40.137Z,14.25
2023-03-02T17:41:09.946Z,14.25
2023-03-02T17:43:40.042Z,14.25
2023-03-02T17:46:13.300Z,14.25
2023-03-02T17:48:41.704Z,14.26
2023-03-02T17:51:11.705Z,14.26
2023-03-02T17:53:39.647Z,14.26
2023-03-02T17:56:07.986Z,14.26
2023-03-02T17:58:44.632Z,14.27
2023-03-02T18:01:15.568Z,14.23
2023-03-02T18:03:44.949Z,14.21
2023-03-02T18:06:14.845Z,14.18
2023-03-02T18:08:42.492Z,14.16
2023-03-02T18:11:10.514Z,14.16
2023-03-02T18:13:38.514Z,14.13
2023-03-02T18:16:07.068Z,14.11
2023-03-02T18:18:34.735Z,14.10
2023-03-02T18:21:02.396Z,14.08
2023-03-02T18:23:31.536Z,14.07
2023-03-02T18:25:59.160Z,14.06
2023-03-02T18:28:26.836Z,14.07
2023-03-02T18:30:54.574Z,14.07
2023-03-02T18:33:22.310Z,14.04
2023-03-02T18:35:49.980Z,14.04
2023-03-02T18:38:17.590Z,14.04
2023-03-02T18:40:46.755Z,14.02
2023-03-02T18:43:14.392Z,14.01
2023-03-02T18:45:42.369Z,14.00
2023-03-02T18:48:10.049Z,13.99
2023-03-02T18:50:39.497Z,14.00
2023-03-02T18:53:08.554Z,13.98
2023-03-02T18:55:37.376Z,13.98
2023-03-02T18:58:06.354Z,13.98
2023-03-02T19:00:34.862Z,13.97
2023-03-02T19:03:02.553Z,13.97
2023-03-02T19:05:30.224Z,13.96
2023-03-02T19:07:58.977Z,13.94
2023-03-02T19:10:26.677Z,13.95
2023-03-02T19:12:54.326Z,13.95
2023-03-02T19:15:24.882Z,13.93
2023-03-02T19:17:53.035Z,13.92
2023-03-02T19:20:22.081Z,13.92
2023-03-02T19:22:49.977Z,13.91
2023-03-02T19:25:17.596Z,13.92
2023-03-02T19:27:45.238Z,13.91
2023-03-02T19:30:24.334Z,13.91
2023-03-02T19:32:54.872Z,13.89
2023-03-02T19:35:24.681Z,13.88
2023-03-02T19:37:52.929Z,13.89
2023-03-02T19:40:24.550Z,13.87
2023-03-02T19:42:53.238Z,13.87
2023-03-02T19:45:23.263Z,13.87
2023-03-02T19:47:50.876Z,13.87
2023-03-02T19:50:21.771Z,13.86
2023-03-02T19:52:50.538Z,13.86
2023-03-02T19:55:18.162Z,13.84
2023-03-02T19:57:51.027Z,13.85
2023-03-02T20:00:20.280Z,13.85
2023-03-02T20:02:47.999Z,13.85
2023-03-02T20:05:16.316Z,13.86
2023-03-02T20:07:45.462Z,13.86
2023-03-02T20:10:26.498Z,13.86
2023-03-02T20:12:54.265Z,13.86
2023-03-02T20:15:21.958Z,13.85
2023-03-02T20:17:49.585Z,13.85
2023-03-02T20:20:17.460Z,13.83
2023-03-02T20:22:46.444Z,13.84
2023-03-02T20:25:14.467Z,13.84
2023-03-02T20:27:42.795Z,13.84
2023-03-02T20:30:15.397Z,13.84
2023-03-02T20:32:43.418Z,13.82
2023-03-02T20:35:11.962Z,13.81
2023-03-02T20:37:39.898Z,13.81
2023-03-02T20:40:10.683Z,13.82
2023-03-02T20:42:39.937Z,13.82
2023-03-02T20:45:08.430Z,13.83
2023-03-02T20:47:36.289Z,13.83
2023-03-02T20:50:05.748Z,13.83
2023-03-02T20:52:33.495Z,13.83
2023-03-02T20:55:01.821Z,13.82
2023-03-02T20:57:30.884Z,13.83
2023-03-02T20:59:58.722Z,13.81
2023-03-02T21:02:26.432Z,13.82
2023-03-02T21:04:54.120Z,13.82
2023-03-02T21:07:21.787Z,13.83
2023-03-02T21:09:49.499Z,13.82
2023-03-02T21:12:17.216Z,13.81
2023-03-02T21:14:46.292Z,13.80
2023-03-02T21:17:14.186Z,13.80
2023-03-02T21:19:41.819Z,13.79
2023-03-02T21:22:09.412Z,13.79
2023-03-02T21:24:37.027Z,13.79
2023-03-02T21:27:07.190Z,13.79
2023-03-02T21:29:34.938Z,13.79
2023-03-02T21:32:06.110Z,13.78
2023-03-02T21:34:33.896Z,13.78
2023-03-02T21:37:02.041Z,13.78
2023-03-02T21:39:29.670Z,13.77
2023-03-02T21:41:57.535Z,13.77
2023-03-02T21:44:25.785Z,13.77
2023-03-02T21:46:53.689Z,13.76
2023-03-02T21:49:23.658Z,13.76
2023-03-02T21:51:51.300Z,13.76
2023-03-02T21:54:19.400Z,13.77
2023-03-02T21:56:47.065Z,13.76
2023-03-02T21:59:14.761Z,13.76
2023-03-02T22:01:42.570Z,13.75
2023-03-02T22:04:10.316Z,13.74
2023-03-02T22:06:39.368Z,13.75
2023-03-02T22:09:07.057Z,13.74
2023-03-02T22:11:36.907Z,13.74
2023-03-02T22:14:12.442Z,13.74
2023-03-02T22:16:42.091Z,13.73
2023-03-02T22:19:24.427Z,13.74
2023-03-02T22:21:54.822Z,13.72
2023-03-02T22:24:25.188Z,13.72
2023-03-02T22:27:01.184Z,13.73
2023-03-02T22:29:31.319Z,13.73
2023-03-02T22:32:13.881Z,13.74
2023-03-02T22:34:43.992Z,13.72
2023-03-02T22:37:15.286Z,13.73
2023-03-02T22:39:43.060Z,13.73
2023-03-02T22:42:15.111Z,13.73
2023-03-02T22:44:43.156Z,13.72
2023-03-02T22:47:17.011Z,13.71
2023-03-02T22:49:44.737Z,13.71
2023-03-02T22:52:22.076Z,13.71
2023-03-02T22:54:50.116Z,13.71
2023-03-02T22:57:29.749Z,13.70
2023-03-02T23:00:30.020Z,13.71
2023-03-02T23:02:57.716Z,13.70
2023-03-02T23:05:28.659Z,13.70
2023-03-02T23:08:13.754Z,13.69
2023-03-02T23:10:42.819Z,13.69
2023-03-02T23:13:10.488Z,13.69
2023-03-02T23:15:38.209Z,13.69
2023-03-02T23:18:17.607Z,13.69
2023-03-02T23:20:45.414Z,13.68
2023-03-02T23:23:14.438Z,13.67
2023-03-02T23:25:42.149Z,13.66
2023-03-02T23:28:10.221Z,13.67
2023-03-02T23:30:38.018Z,13.67
2023-03-02T23:33:06.296Z,13.66
2023-03-02T23:35:34.116Z,13.65
2023-03-02T23:38:01.805Z,13.65
2023-03-02T23:40:30.770Z,13.63
2023-03-02T23:42:58.427Z,13.64
2023-03-02T23:45:26.445Z,13.62
2023-03-02T23:47:54.088Z,13.64
2023-03-02T23:50:21.699Z,13.64
2023-03-02T23:52:49.313Z,13.66
2023-03-02T23:55:17.873Z,13.69
2023-03-02T23:57:46.911Z,13.72
